Time;durP1;ratioP1;P1;durP2;ratioP2;P2;SDS_P1;SDS_P2;PMS_P1;PMS_P2;Temp;Humidity;BMP_temperature;BMP_pressure;BME280_temperature;BME280_humidity;BME280_pressure;Samples;Min_cycle;Max_cycle;Signal;HPM_P1;HPM_P2
2022/08/10 00:03:39;;;;;;;3.93;2.30;;;;;;;;;;10395077;28;20794;-73
2022/08/10 00:08:40;;;;;;;2.97;2.33;;;;;;;;;;10396123;28;20224;-73
2022/08/10 00:13:41;;;;;;;3.77;2.40;;;;;;;;;;10391466;28;20228;-73
2022/08/10 00:18:42;;;;;;;5.20;2.27;;;;;;;;;;10396704;28;20639;-72
2022/08/10 00:23:49;;;;;;;3.87;2.20;;;;;;;;;;10392395;28;20225;-73
2022/08/10 00:28:53;;;;;;;4.27;2.60;;;;;;;;;;10392904;28;20309;-72
2022/08/10 00:33:54;;;;;;;6.23;2.67;;;;;;;;;;10392490;28;20315;-72
2022/08/10 00:38:55;;;;;;;6.93;2.60;;;;;;;;;;10404087;28;20708;-73
2022/08/10 00:43:56;;;;;;;3.67;2.37;;;;;;;;;;10409971;28;20675;-73
2022/08/10 00:48:57;;;;;;;6.27;2.50;;;;;;;;;;10395773;28;20248;-72
2022/08/10 00:53:59;;;;;;;5.63;2.47;;;;;;;;;;10397105;28;20243;-72
2022/08/10 00:59:00;;;;;;;5.50;2.67;;;;;;;;;;10412773;28;20636;-72
2022/08/10 01:04:03;;;;;;;4.93;2.70;;;;;;;;;;10397892;28;20308;-70
2022/08/10 01:09:23;;;;;;;2.63;2.37;;;;;;;;;;10387986;28;20232;-69
2022/08/10 01:14:27;;;;;;;3.93;2.70;;;;;;;;;;10388629;28;20745;-69
2022/08/10 01:19:46;;;;;;;3.37;2.40;;;;;;;;;;10398636;28;20228;-70
2022/08/10 01:24:56;;;;;;;4.57;2.93;;;;;;;;;;10403200;28;20228;-70
2022/08/10 01:30:00;;;;;;;6.17;2.87;;;;;;;;;;10413648;28;20696;-69
2022/08/10 01:35:06;;;;;;;4.00;2.60;;;;;;;;;;10406343;28;20224;-69
2022/08/10 01:40:08;;;;;;;6.83;2.53;;;;;;;;;;10404392;28;20239;-71
2022/08/10 01:45:10;;;;;;;2.57;2.37;;;;;;;;;;10406060;28;20266;-70
2022/08/10 01:50:34;;;;;;;7.77;2.83;;;;;;;;;;10401263;28;20185;-71
2022/08/10 01:55:36;;;;;;;5.83;2.53;;;;;;;;;;10384463;28;20216;-71
2022/08/10 02:00:38;;;;;;;9.93;2.70;;;;;;;;;;10406361;28;20296;-71
2022/08/10 02:05:40;;;;;;;4.47;2.60;;;;;;;;;;10400607;28;20304;-69
2022/08/10 02:10:42;;;;;;;3.23;2.60;;;;;;;;;;10409352;28;20296;-70
2022/08/10 02:15:44;;;;;;;5.43;2.60;;;;;;;;;;10407128;28;20212;-70
2022/08/10 02:20:47;;;;;;;5.17;2.60;;;;;;;;;;10402345;28;20217;-70
2022/08/10 02:25:49;;;;;;;3.67;2.63;;;;;;;;;;10400882;28;20229;-71
2022/08/10 02:30:52;;;;;;;5.83;2.80;;;;;;;;;;10402408;28;20217;-70
2022/08/10 02:35:54;;;;;;;4.90;2.20;;;;;;;;;;10395454;28;20572;-71
2022/08/10 02:40:57;;;;;;;3.90;2.60;;;;;;;;;;10409502;28;20274;-71
2022/08/10 02:46:09;;;;;;;6.27;2.70;;;;;;;;;;10410014;28;20640;-69
2022/08/10 02:51:16;;;;;;;7.90;2.37;;;;;;;;;;10396995;28;20220;-70
2022/08/10 02:56:35;;;;;;;6.97;2.90;;;;;;;;;;10391114;28;20232;-69
2022/08/10 03:01:40;;;;;;;8.37;2.70;;;;;;;;;;10400769;28;20631;-71
2022/08/10 03:06:46;;;;;;;5.17;2.90;;;;;;;;;;10392714;28;20244;-71
2022/08/10 03:11:48;;;;;;;5.23;2.90;;;;;;;;;;10397668;28;20216;-70
2022/08/10 03:16:50;;;;;;;5.27;2.83;;;;;;;;;;10400054;28;20224;-69
2022/08/10 03:21:52;;;;;;;4.77;2.80;;;;;;;;;;10395219;28;20303;-71
2022/08/10 03:26:54;;;;;;;8.10;2.83;;;;;;;;;;10396210;28;20240;-70
2022/08/10 03:31:56;;;;;;;5.17;2.67;;;;;;;;;;10394001;28;20225;-69
2022/08/10 03:36:57;;;;;;;4.50;2.80;;;;;;;;;;10394091;28;20229;-70
2022/08/10 03:41:59;;;;;;;4.57;2.90;;;;;;;;;;10398873;28;20225;-70
2022/08/10 03:47:01;;;;;;;5.20;2.93;;;;;;;;;;10394470;28;20320;-71
2022/08/10 03:52:05;;;;;;;4.63;2.40;;;;;;;;;;10394344;28;20225;-69
2022/08/10 03:57:06;;;;;;;5.17;3.33;;;;;;;;;;10395013;28;20601;-69
2022/08/10 04:02:07;;;;;;;6.83;3.00;;;;;;;;;;10401535;28;20255;-70
2022/08/10 04:07:08;;;;;;;3.17;2.40;;;;;;;;;;10390442;28;20260;-69
2022/08/10 04:12:09;;;;;;;3.17;2.37;;;;;;;;;;10398259;28;20241;-69
2022/08/10 04:17:10;;;;;;;7.33;2.90;;;;;;;;;;10395181;28;20275;-71
2022/08/10 04:22:17;;;;;;;3.13;2.53;;;;;;;;;;10391552;28;20347;-70
2022/08/10 04:27:18;;;;;;;2.93;2.57;;;;;;;;;;10396467;28;20232;-69
2022/08/10 04:32:20;;;;;;;6.73;2.60;;;;;;;;;;10388826;28;20307;-70
2022/08/10 04:37:22;;;;;;;5.87;2.50;;;;;;;;;;10394791;28;20829;-69
2022/08/10 04:42:23;;;;;;;4.23;2.87;;;;;;;;;;10396715;28;20216;-72
2022/08/10 04:47:24;;;;;;;3.43;2.67;;;;;;;;;;10405159;28;20236;-70
2022/08/10 04:52:25;;;;;;;7.67;2.83;;;;;;;;;;10402308;28;20227;-70
2022/08/10 04:57:26;;;;;;;5.00;2.47;;;;;;;;;;10387752;28;20220;-70
2022/08/10 05:02:27;;;;;;;4.33;2.63;;;;;;;;;;10396684;28;20307;-70
2022/08/10 05:07:28;;;;;;;5.40;2.67;;;;;;;;;;10403479;28;20303;-69
2022/08/10 05:12:30;;;;;;;4.57;2.50;;;;;;;;;;10387073;28;20224;-70
2022/08/10 05:17:31;;;;;;;8.47;2.70;;;;;;;;;;10387874;28;20327;-70
2022/08/10 05:22:35;;;;;;;11.33;2.97;;;;;;;;;;10388327;28;20221;-69
2022/08/10 05:27:36;;;;;;;6.53;3.10;;;;;;;;;;10395402;28;20256;-70
2022/08/10 05:32:37;;;;;;;4.97;2.93;;;;;;;;;;10386995;28;20260;-69
2022/08/10 05:37:39;;;;;;;6.87;3.30;;;;;;;;;;10393779;28;20295;-71
2022/08/10 05:42:40;;;;;;;6.60;2.73;;;;;;;;;;10388875;28;20220;-70
2022/08/10 05:47:41;;;;;;;6.50;2.80;;;;;;;;;;10386969;28;20236;-70
2022/08/10 05:52:48;;;;;;;11.83;3.30;;;;;;;;;;10392541;28;20299;-70
2022/08/10 05:57:53;;;;;;;12.90;3.07;;;;;;;;;;10391152;28;20373;-70
2022/08/10 06:02:59;;;;;;;7.73;3.00;;;;;;;;;;10390752;28;20221;-69
2022/08/10 06:08:01;;;;;;;5.47;2.60;;;;;;;;;;10394038;28;20612;-69
2022/08/10 06:18:26;;;;;;;14.70;3.30;;;;;;;;;;10402789;28;20641;-69
2022/08/10 06:23:34;;;;;;;9.60;3.23;;;;;;;;;;10392523;28;20217;-71
2022/08/10 06:28:41;;;;;;;10.83;3.33;;;;;;;;;;10394847;28;20237;-70
2022/08/10 06:33:44;;;;;;;9.60;3.30;;;;;;;;;;10401389;28;20208;-70
2022/08/10 06:38:45;;;;;;;7.17;2.53;;;;;;;;;;10389810;28;20231;-69
2022/08/10 06:43:49;;;;;;;6.93;2.67;;;;;;;;;;10393150;28;20229;-71
2022/08/10 06:48:52;;;;;;;4.27;2.80;;;;;;;;;;10403465;28;20227;-70
2022/08/10 06:53:55;;;;;;;9.50;3.10;;;;;;;;;;10400547;28;20227;-70
2022/08/10 06:58:58;;;;;;;3.30;2.60;;;;;;;;;;10407172;28;20228;-70
2022/08/10 07:04:02;;;;;;;5.80;3.10;;;;;;;;;;10407890;28;20213;-70
2022/08/10 07:09:04;;;;;;;4.63;2.57;;;;;;;;;;10403730;28;20248;-71
2022/08/10 07:14:05;;;;;;;5.67;2.73;;;;;;;;;;10388465;28;20243;-69
2022/08/10 07:19:07;;;;;;;8.73;2.97;;;;;;;;;;10388617;28;20231;-69
2022/08/10 07:24:14;;;;;;;2.60;2.40;;;;;;;;;;10399749;28;20228;-70
2022/08/10 07:29:19;;;;;;;2.87;2.43;;;;;;;;;;10391967;28;20249;-70
2022/08/10 07:34:21;;;;;;;2.50;2.30;;;;;;;;;;10391099;28;20220;-70
2022/08/10 07:39:24;;;;;;;4.77;2.40;;;;;;;;;;10406244;28;20221;-71
2022/08/10 07:44:27;;;;;;;4.43;2.30;;;;;;;;;;10389741;28;20233;-69
2022/08/10 07:49:33;;;;;;;3.17;2.07;;;;;;;;;;10390154;28;20234;-69
2022/08/10 07:54:39;;;;;;;3.53;2.10;;;;;;;;;;10397784;28;20229;-70
2022/08/10 07:59:43;;;;;;;2.60;2.00;;;;;;;;;;10398148;28;20216;-69
2022/08/10 08:04:46;;;;;;;5.63;2.10;;;;;;;;;;10391263;28;20256;-70
2022/08/10 08:09:48;;;;;;;3.17;2.10;;;;;;;;;;10395272;28;20236;-71
2022/08/10 08:14:50;;;;;;;4.80;1.83;;;;;;;;;;10393291;28;20300;-70
2022/08/10 08:19:51;;;;;;;3.57;1.80;;;;;;;;;;10392131;28;20221;-69
2022/08/10 08:24:56;;;;;;;5.00;1.87;;;;;;;;;;10388753;28;20212;-69
2022/08/10 08:29:57;;;;;;;2.23;1.80;;;;;;;;;;10395810;28;20239;-70
2022/08/10 08:35:03;;;;;;;3.70;2.03;;;;;;;;;;10392467;28;20214;-70
2022/08/10 08:40:05;;;;;;;3.13;1.90;;;;;;;;;;10403128;28;20217;-70
2022/08/10 08:45:22;;;;;;;5.23;2.07;;;;;;;;;;10395733;28;20233;-70
2022/08/10 08:50:36;;;;;;;4.33;1.80;;;;;;;;;;10400483;28;20228;-71
2022/08/10 08:55:55;;;;;;;2.33;1.60;;;;;;;;;;10408469;28;20304;-71
2022/08/10 09:01:08;;;;;;;2.53;1.57;;;;;;;;;;10396002;28;20217;-70
2022/08/10 09:06:27;;;;;;;3.97;1.70;;;;;;;;;;10398437;28;20248;-70
2022/08/10 09:11:50;;;;;;;5.80;1.50;;;;;;;;;;10395758;28;20595;-70
2022/08/10 09:17:14;;;;;;;2.43;1.60;;;;;;;;;;10395863;28;20228;-71
2022/08/10 09:22:40;;;;;;;6.33;1.80;;;;;;;;;;10372392;28;20221;-70
2022/08/10 09:27:49;;;;;;;4.97;1.70;;;;;;;;;;10388682;28;20232;-70
2022/08/10 09:32:53;;;;;;;2.27;1.60;;;;;;;;;;10387193;28;20612;-70
2022/08/10 09:37:54;;;;;;;7.23;2.50;;;;;;;;;;10390842;28;20225;-71
2022/08/10 09:43:13;;;;;;;4.13;1.77;;;;;;;;;;10390348;28;20590;-70
2022/08/10 09:48:32;;;;;;;1.70;1.60;;;;;;;;;;10400955;28;20228;-69
2022/08/10 09:53:45;;;;;;;4.47;1.77;;;;;;;;;;10403281;28;20255;-71
2022/08/10 09:58:50;;;;;;;5.87;1.80;;;;;;;;;;10405531;28;20217;-70
2022/08/10 10:03:59;;;;;;;5.20;1.73;;;;;;;;;;10394556;28;20594;-70
2022/08/10 10:09:15;;;;;;;2.07;1.50;;;;;;;;;;10398074;28;20267;-71
2022/08/10 10:14:25;;;;;;;3.57;1.60;;;;;;;;;;10398629;28;20231;-70
2022/08/10 10:19:29;;;;;;;9.00;1.70;;;;;;;;;;10394750;28;20221;-70
2022/08/10 10:24:47;;;;;;;5.80;2.00;;;;;;;;;;10401644;28;20228;-70
2022/08/10 10:29:54;;;;;;;4.40;1.50;;;;;;;;;;10401508;28;20770;-69
2022/08/10 10:35:04;;;;;;;3.40;1.73;;;;;;;;;;10397122;28;20225;-70
2022/08/10 10:40:07;;;;;;;4.10;1.83;;;;;;;;;;10408503;28;20269;-70
2022/08/10 10:45:27;;;;;;;4.33;1.63;;;;;;;;;;10404062;28;20198;-70
2022/08/10 10:50:37;;;;;;;2.80;1.57;;;;;;;;;;10410010;28;20228;-71
2022/08/10 10:56:02;;;;;;;4.37;1.63;;;;;;;;;;10399012;28;20672;-70
2022/08/10 11:01:08;;;;;;;1.87;1.60;;;;;;;;;;10397436;28;20244;-71
2022/08/10 11:06:24;;;;;;;2.10;1.60;;;;;;;;;;10390703;28;20675;-70
2022/08/10 11:11:28;;;;;;;6.20;2.00;;;;;;;;;;10392084;28;20251;-70
2022/08/10 11:16:46;;;;;;;4.47;1.53;;;;;;;;;;10399008;28;20225;-71
2022/08/10 11:22:05;;;;;;;4.23;1.93;;;;;;;;;;10394179;28;20338;-69
2022/08/10 11:27:06;;;;;;;8.37;2.10;;;;;;;;;;10391450;28;20954;-69
2022/08/10 11:32:16;;;;;;;3.83;1.63;;;;;;;;;;10395011;28;20363;-70
2022/08/10 11:37:38;;;;;;;1.80;1.40;;;;;;;;;;10391258;28;20232;-69
2022/08/10 11:42:41;;;;;;;6.20;2.13;;;;;;;;;;10391161;28;20229;-69
2022/08/10 11:47:45;;;;;;;2.07;1.63;;;;;;;;;;10397223;28;20299;-70
2022/08/10 11:52:58;;;;;;;3.70;1.97;;;;;;;;;;10396561;28;20236;-70
2022/08/10 11:59:55;;;;;;;4.07;1.90;;;;;;;;;;10391462;28;20228;-70
2022/08/10 12:03:25;;;;;;;2.60;1.93;;;;;;;;;;10398282;28;20221;-69
2022/08/10 12:08:27;;;;;;;3.53;1.77;;;;;;;;;;10397565;28;20231;-69
2022/08/10 12:13:33;;;;;;;6.80;1.83;;;;;;;;;;10390072;28;20227;-70
2022/08/10 12:18:46;;;;;;;6.07;2.00;;;;;;;;;;10390989;28;20225;-70
2022/08/10 12:24:02;;;;;;;3.50;1.70;;;;;;;;;;10393683;28;20220;-68
2022/08/10 12:29:21;;;;;;;7.07;1.93;;;;;;;;;;10392818;28;20216;-70
2022/08/10 12:34:35;;;;;;;4.93;2.00;;;;;;;;;;10396376;28;20228;-70
2022/08/10 12:39:55;;;;;;;3.87;1.57;;;;;;;;;;10390408;28;20225;-69
2022/08/10 12:45:03;;;;;;;5.20;1.90;;;;;;;;;;10401994;28;20220;-70
2022/08/10 12:50:23;;;;;;;3.17;2.10;;;;;;;;;;10402033;28;20243;-70
2022/08/10 12:55:25;;;;;;;3.13;1.90;;;;;;;;;;10404702;28;20623;-70
2022/08/10 13:00:28;;;;;;;3.60;2.00;;;;;;;;;;10386176;28;20856;-70
2022/08/10 13:05:32;;;;;;;2.93;1.83;;;;;;;;;;10394758;28;20232;-70
2022/08/10 13:10:33;;;;;;;2.43;1.90;;;;;;;;;;10387426;28;20228;-72
2022/08/10 13:15:35;;;;;;;3.70;2.10;;;;;;;;;;10391277;28;20225;-69
2022/08/10 13:20:42;;;;;;;1.80;1.60;;;;;;;;;;10392775;28;20229;-69
2022/08/10 13:25:45;;;;;;;3.07;2.00;;;;;;;;;;10386731;28;20229;-71
2022/08/10 13:30:50;;;;;;;4.07;2.10;;;;;;;;;;10391418;28;20221;-71
2022/08/10 13:35:56;;;;;;;2.83;1.80;;;;;;;;;;10387356;28;20216;-70
2022/08/10 13:40:58;;;;;;;9.23;1.90;;;;;;;;;;10389114;28;20224;-71
2022/08/10 13:45:59;;;;;;;7.03;2.30;;;;;;;;;;10387231;28;20233;-71
2022/08/10 13:51:02;;;;;;;3.83;1.63;;;;;;;;;;10388858;28;20248;-70
2022/08/10 13:56:06;;;;;;;7.13;2.10;;;;;;;;;;10387714;28;20218;-70
2022/08/10 14:01:14;;;;;;;3.73;1.80;;;;;;;;;;10392312;28;20271;-70
2022/08/10 14:06:16;;;;;;;2.83;2.00;;;;;;;;;;10387905;28;20240;-70
2022/08/10 14:11:18;;;;;;;4.37;2.00;;;;;;;;;;10384385;28;20241;-69
2022/08/10 14:16:20;;;;;;;2.90;1.87;;;;;;;;;;10393807;28;20627;-69
2022/08/10 14:21:21;;;;;;;3.83;1.90;;;;;;;;;;10389095;28;20635;-70
2022/08/10 14:26:28;;;;;;;3.70;1.90;;;;;;;;;;10400702;28;20220;-70
2022/08/10 14:31:32;;;;;;;2.20;1.73;;;;;;;;;;10401559;28;20231;-70
2022/08/10 14:36:40;;;;;;;4.77;1.90;;;;;;;;;;10392984;28;20596;-70
2022/08/10 14:41:42;;;;;;;3.40;1.97;;;;;;;;;;10399751;28;20220;-69
2022/08/10 14:46:44;;;;;;;2.53;1.80;;;;;;;;;;10406367;28;20285;-70
2022/08/10 14:51:46;;;;;;;3.63;1.80;;;;;;;;;;10397175;28;20703;-71
2022/08/10 14:56:48;;;;;;;4.40;1.73;;;;;;;;;;10400032;28;20564;-69
2022/08/10 15:01:56;;;;;;;3.50;1.90;;;;;;;;;;10383486;28;20256;-68
2022/08/10 15:06:59;;;;;;;3.50;1.87;;;;;;;;;;10398675;28;20311;-70
2022/08/10 15:12:01;;;;;;;4.73;1.90;;;;;;;;;;10394742;28;20224;-70
2022/08/10 15:17:02;;;;;;;3.47;1.83;;;;;;;;;;10395348;28;20220;-71
2022/08/10 15:22:04;;;;;;;4.40;2.00;;;;;;;;;;10389884;28;20623;-69
2022/08/10 15:27:10;;;;;;;4.03;2.13;;;;;;;;;;10397399;28;20229;-70
2022/08/10 15:37:33;;;;;;;5.33;1.70;;;;;;;;;;10390048;28;20229;-70
2022/08/10 15:42:35;;;;;;;4.87;1.90;;;;;;;;;;10397556;28;20584;-71
2022/08/10 15:47:43;;;;;;;5.93;2.17;;;;;;;;;;10389773;28;20263;-69
2022/08/10 15:52:49;;;;;;;3.43;1.60;;;;;;;;;;10391375;28;20703;-70
2022/08/10 15:58:03;;;;;;;3.03;1.60;;;;;;;;;;10392963;28;20224;-70
2022/08/10 16:03:10;;;;;;;4.03;1.93;;;;;;;;;;10397553;28;20250;-69
2022/08/10 16:08:14;;;;;;;4.17;1.90;;;;;;;;;;10394100;28;20656;-70
2022/08/10 16:13:18;;;;;;;3.13;1.80;;;;;;;;;;10390626;28;20565;-69
2022/08/10 16:18:24;;;;;;;1.73;1.50;;;;;;;;;;10394995;28;20367;-69
2022/08/10 16:23:29;;;;;;;3.73;2.10;;;;;;;;;;10395116;28;20304;-70
2022/08/10 16:28:32;;;;;;;1.50;1.40;;;;;;;;;;10395927;28;20784;-70
2022/08/10 16:33:34;;;;;;;7.90;2.57;;;;;;;;;;10387140;28;20212;-70
2022/08/10 16:38:43;;;;;;;3.70;1.83;;;;;;;;;;10390506;28;20221;-70
2022/08/10 16:43:45;;;;;;;3.63;2.10;;;;;;;;;;10394369;28;20703;-70
2022/08/10 16:48:50;;;;;;;5.30;1.80;;;;;;;;;;10386290;28;20228;-70
2022/08/10 16:53:52;;;;;;;2.53;1.80;;;;;;;;;;10398691;28;20626;-70
2022/08/10 16:58:54;;;;;;;4.73;1.73;;;;;;;;;;10397042;28;20215;-70
2022/08/10 17:03:56;;;;;;;3.87;1.90;;;;;;;;;;10406136;28;20209;-69
2022/08/10 17:09:04;;;;;;;3.57;2.00;;;;;;;;;;10407392;28;20254;-71
2022/08/10 17:14:07;;;;;;;3.73;2.13;;;;;;;;;;10408575;28;20242;-69
2022/08/10 17:19:20;;;;;;;4.83;2.37;;;;;;;;;;10400130;28;20224;-69
2022/08/10 17:24:33;;;;;;;3.97;2.00;;;;;;;;;;10391645;28;20637;-70
2022/08/10 17:29:39;;;;;;;4.37;1.90;;;;;;;;;;10388439;28;20239;-70
2022/08/10 17:34:44;;;;;;;3.47;2.10;;;;;;;;;;10401369;28;20691;-71
2022/08/10 17:39:47;;;;;;;3.47;2.17;;;;;;;;;;10407752;28;20598;-70
2022/08/10 17:44:50;;;;;;;8.63;2.17;;;;;;;;;;10400253;28;20221;-70
2022/08/10 17:49:55;;;;;;;4.70;2.20;;;;;;;;;;10406481;28;20576;-70
2022/08/10 17:54:59;;;;;;;4.47;1.80;;;;;;;;;;10394184;28;20731;-70
2022/08/10 18:00:01;;;;;;;6.20;2.13;;;;;;;;;;10399911;28;20224;-71
2022/08/10 18:05:02;;;;;;;3.30;2.07;;;;;;;;;;10404212;28;20775;-70
2022/08/10 18:10:05;;;;;;;4.57;2.03;;;;;;;;;;10405717;28;20224;-70
2022/08/10 18:15:10;;;;;;;3.50;2.40;;;;;;;;;;10383767;28;20252;-68
2022/08/10 18:20:12;;;;;;;3.77;2.03;;;;;;;;;;10414686;28;20236;-71
2022/08/10 18:25:17;;;;;;;4.27;1.90;;;;;;;;;;10390964;28;20609;-68
2022/08/10 18:30:19;;;;;;;4.73;2.00;;;;;;;;;;10411934;28;20197;-69
2022/08/10 18:35:23;;;;;;;5.23;3.07;;;;;;;;;;10411780;28;20187;-70
2022/08/10 18:40:24;;;;;;;6.50;3.43;;;;;;;;;;10413247;28;24342;-69
2022/08/10 18:45:32;;;;;;;5.47;2.40;;;;;;;;;;10393875;28;20308;-70
2022/08/10 18:50:36;;;;;;;2.50;2.10;;;;;;;;;;10406450;28;20227;-67
2022/08/10 18:55:41;;;;;;;4.73;2.43;;;;;;;;;;10414020;28;20231;-69
2022/08/10 19:01:01;;;;;;;4.33;2.60;;;;;;;;;;10415257;28;20329;-68
2022/08/10 19:06:08;;;;;;;5.53;2.63;;;;;;;;;;10407061;28;20235;-69
2022/08/10 19:11:19;;;;;;;5.97;3.03;;;;;;;;;;10404022;28;20216;-68
2022/08/10 19:16:32;;;;;;;6.67;3.10;;;;;;;;;;10408957;28;20247;-70
2022/08/10 19:21:36;;;;;;;5.10;2.97;;;;;;;;;;10400782;28;20742;-69
2022/08/10 19:26:41;;;;;;;4.70;2.80;;;;;;;;;;10407127;28;20223;-69
2022/08/10 19:31:45;;;;;;;3.43;2.63;;;;;;;;;;10400559;28;20315;-69
2022/08/10 19:36:50;;;;;;;4.17;2.87;;;;;;;;;;10404135;28;20238;-69
2022/08/10 19:41:54;;;;;;;4.63;2.47;;;;;;;;;;10411130;28;20266;-70
2022/08/10 19:47:09;;;;;;;4.60;2.70;;;;;;;;;;10408325;28;20224;-70
2022/08/10 19:52:23;;;;;;;4.33;2.53;;;;;;;;;;10400753;28;20305;-70
2022/08/10 19:57:28;;;;;;;3.57;2.73;;;;;;;;;;10387974;28;20241;-70
2022/08/10 20:02:31;;;;;;;5.00;2.43;;;;;;;;;;10409460;28;20593;-69
2022/08/10 20:07:50;;;;;;;6.63;3.10;;;;;;;;;;10399028;28;20236;-70
2022/08/10 20:13:12;;;;;;;4.97;2.93;;;;;;;;;;10396282;28;20336;-69
2022/08/10 20:18:23;;;;;;;4.63;2.33;;;;;;;;;;10399158;28;20251;-70
2022/08/10 20:23:28;;;;;;;5.00;2.40;;;;;;;;;;10392370;28;20219;-70
2022/08/10 20:28:28;;;;;;;3.27;2.60;;;;;;;;;;10388874;28;20315;-70
2022/08/10 20:33:29;;;;;;;5.63;2.60;;;;;;;;;;10394927;28;20303;-69
2022/08/10 20:38:47;;;;;;;4.43;2.70;;;;;;;;;;10386572;28;20240;-70
2022/08/10 20:44:09;;;;;;;4.43;2.53;;;;;;;;;;10408176;28;20634;-70
2022/08/10 20:49:16;;;;;;;3.37;2.43;;;;;;;;;;10402521;28;20227;-69
2022/08/10 20:54:18;;;;;;;3.83;2.30;;;;;;;;;;10404119;28;20307;-68
2022/08/10 20:59:36;;;;;;;5.90;2.30;;;;;;;;;;10379620;28;20682;-69
2022/08/10 21:04:49;;;;;;;4.97;2.10;;;;;;;;;;10404856;28;20604;-69
2022/08/10 21:10:10;;;;;;;4.37;2.37;;;;;;;;;;10404889;28;20228;-70
2022/08/10 21:15:25;;;;;;;7.40;2.77;;;;;;;;;;10391084;28;20225;-70
2022/08/10 21:20:28;;;;;;;5.20;2.37;;;;;;;;;;10395653;28;20284;-72
2022/08/10 21:25:34;;;;;;;3.50;2.40;;;;;;;;;;10409909;28;20227;-69
2022/08/10 23:01:40;;;;;;;4.50;2.33;;;;;;;;;;10407673;28;20229;-71
2022/08/10 23:06:44;;;;;;;4.80;2.97;;;;;;;;;;10399763;28;20227;-71
2022/08/10 23:11:49;;;;;;;3.70;2.53;;;;;;;;;;10406723;28;20217;-72
2022/08/10 23:22:14;;;;;;;3.27;2.50;;;;;;;;;;10412920;28;20224;-71
2022/08/10 23:27:16;;;;;;;8.77;2.77;;;;;;;;;;10406484;28;20390;-72
2022/08/10 23:32:19;;;;;;;4.10;2.33;;;;;;;;;;10410025;28;20229;-71
2022/08/10 23:37:27;;;;;;;4.07;2.30;;;;;;;;;;10400647;28;20221;-72
2022/08/10 23:42:36;;;;;;;4.60;2.50;;;;;;;;;;10405313;28;20300;-72
2022/08/10 23:47:41;;;;;;;4.00;2.63;;;;;;;;;;10405843;28;20239;-72
2022/08/10 23:52:49;;;;;;;7.23;3.20;;;;;;;;;;10407186;28;20715;-73
2022/08/10 23:58:04;;;;;;;3.87;2.50;;;;;;;;;;10405269;28;20220;-71
